createdAt,value
2019-02-08T00:00:01.330Z,1005.01
2019-02-08T00:01:01.369Z,1005.03
2019-02-08T00:02:01.474Z,1005.04
2019-02-08T00:03:01.402Z,1005.06
2019-02-08T00:04:01.444Z,1005.03
2019-02-08T00:05:01.473Z,1005.13
2019-02-08T00:06:01.480Z,1005.13
2019-02-08T00:07:01.498Z,1005.10
2019-02-08T00:08:01.525Z,1005.10
2019-02-08T00:09:01.543Z,1005.06
2019-02-08T00:10:01.805Z,1005.08
2019-02-08T00:11:01.600Z,1005.13
2019-02-08T00:12:01.616Z,1005.05
2019-02-08T00:13:01.641Z,1005.05
2019-02-08T00:14:01.696Z,1005.06
2019-02-08T00:15:01.686Z,1005.06
2019-02-08T00:16:01.715Z,1005.03
2019-02-08T00:17:01.740Z,1005.10
2019-02-08T00:18:01.860Z,1005.02
2019-02-08T00:19:01.784Z,1005.01
2019-02-08T00:20:01.876Z,1005.02
2019-02-08T00:21:01.832Z,1005.01
2019-02-08T00:22:01.863Z,1005.00
2019-02-08T00:23:01.894Z,1005.04
2019-02-08T00:24:01.902Z,1004.99
2019-02-08T00:25:01.933Z,1005.00
2019-02-08T00:26:01.950Z,1005.04
2019-02-08T00:27:01.970Z,1005.07
2019-02-08T00:28:01.997Z,1005.04
2019-02-08T00:29:02.029Z,1004.99
2019-02-08T00:30:02.057Z,1005.05
2019-02-08T00:31:02.079Z,1005.00
2019-02-08T00:32:02.102Z,1004.95
2019-02-08T00:33:02.116Z,1005.06
2019-02-08T00:34:02.136Z,1005.01
2019-02-08T00:35:02.166Z,1005.02
2019-02-08T00:36:02.183Z,1004.97
2019-02-08T00:37:02.211Z,1005.04
2019-02-08T00:38:02.232Z,1005.01
2019-02-08T00:39:02.258Z,1005.00
2019-02-08T00:40:02.282Z,1004.94
2019-02-08T00:41:02.304Z,1005.03
2019-02-08T00:42:02.328Z,1005.03
2019-02-08T00:43:02.359Z,1004.91
2019-02-08T00:44:02.377Z,1005.01
2019-02-08T00:45:02.402Z,1005.00
2019-02-08T00:46:02.425Z,1004.95
2019-02-08T00:47:02.446Z,1004.97
2019-02-08T00:48:02.473Z,1005.00
2019-02-08T00:49:02.494Z,1005.05
2019-02-08T00:50:02.518Z,1005.07
2019-02-08T00:51:02.543Z,1005.09
2019-02-08T00:52:02.574Z,1005.00
2019-02-08T00:53:02.588Z,1005.00
2019-02-08T00:54:02.621Z,1005.07
2019-02-08T00:55:02.635Z,1005.09
2019-02-08T00:56:02.662Z,1005.07
2019-02-08T00:57:02.685Z,1005.06
2019-02-08T00:58:02.709Z,1005.07
2019-02-08T00:59:02.730Z,1005.12
2019-02-08T01:00:02.756Z,1005.09
2019-02-08T01:01:02.778Z,1005.07
2019-02-08T01:02:02.806Z,1005.11
2019-02-08T01:03:02.825Z,1005.08
2019-02-08T01:04:02.848Z,1005.12
2019-02-08T01:05:02.873Z,1005.11
2019-02-08T01:06:02.899Z,1005.14
2019-02-08T01:07:02.922Z,1005.18
2019-02-08T01:08:02.946Z,1005.08
2019-02-08T01:09:02.976Z,1005.11
2019-02-08T01:10:02.992Z,1005.20
2019-02-08T01:11:03.017Z,1005.18
2019-02-08T01:12:03.040Z,1005.15
2019-02-08T01:13:03.070Z,1005.05
2019-02-08T01:14:03.086Z,1005.07
2019-02-08T01:15:03.111Z,1005.06
2019-02-08T01:16:03.142Z,1005.07
2019-02-08T01:17:03.157Z,1005.08
2019-02-08T01:18:03.183Z,1005.09
2019-02-08T01:19:03.206Z,1005.10
2019-02-08T01:20:03.227Z,1005.08
2019-02-08T01:21:03.260Z,1005.09
2019-02-08T01:22:03.277Z,1005.13
2019-02-08T01:23:03.301Z,1005.05
2019-02-08T01:24:03.324Z,1005.02
2019-02-08T01:25:03.348Z,1005.08
2019-02-08T01:26:03.376Z,1005.11
2019-02-08T01:27:03.394Z,1005.11
2019-02-08T01:28:03.418Z,1005.09
2019-02-08T01:29:03.448Z,1005.15
2019-02-08T01:30:03.462Z,1005.16
2019-02-08T01:31:03.486Z,1005.21
2019-02-08T01:32:03.512Z,1005.20
2019-02-08T01:33:03.533Z,1005.22
2019-02-08T01:34:03.557Z,1005.21
2019-02-08T01:35:03.581Z,1005.17
2019-02-08T01:36:03.603Z,1005.19
2019-02-08T01:37:03.637Z,1005.17
2019-02-08T01:38:03.661Z,1005.26
2019-02-08T01:39:03.672Z,1005.15
2019-02-08T01:40:03.697Z,1005.15
2019-02-08T01:41:03.729Z,1005.17
2019-02-08T01:42:03.746Z,1005.18
2019-02-08T01:43:03.767Z,1005.19
2019-02-08T01:44:03.791Z,1005.17
2019-02-08T01:45:03.819Z,1005.25
2019-02-08T01:46:03.840Z,1005.25
2019-02-08T01:47:03.859Z,1005.23
2019-02-08T01:48:03.892Z,1005.22
2019-02-08T01:49:03.910Z,1005.22
2019-02-08T01:50:03.933Z,1005.21
2019-02-08T01:51:03.964Z,1005.21
2019-02-08T01:52:03.981Z,1005.19
2019-02-08T01:53:04.004Z,1005.22
2019-02-08T01:54:04.030Z,1005.29
2019-02-08T01:55:04.047Z,1005.21
2019-02-08T01:56:04.077Z,1005.22
2019-02-08T01:57:04.098Z,1005.31
2019-02-08T01:58:04.119Z,1005.21
2019-02-08T01:59:04.149Z,1005.19
2019-02-08T02:00:04.176Z,1005.19
2019-02-08T02:01:04.192Z,1005.22
2019-02-08T02:02:04.216Z,1005.27
2019-02-08T02:03:04.235Z,1005.19
2019-02-08T02:04:04.262Z,1005.17
2019-02-08T02:05:04.283Z,1005.21
2019-02-08T02:06:04.314Z,1005.23
2019-02-08T02:07:04.337Z,1005.16
2019-02-08T02:08:04.354Z,1005.19
2019-02-08T02:09:04.380Z,1005.20
2019-02-08T02:10:04.403Z,1005.19
2019-02-08T02:11:04.470Z,1005.13
2019-02-08T02:12:04.458Z,1005.20
2019-02-08T02:13:04.476Z,1005.20
2019-02-08T02:14:04.499Z,1005.24
2019-02-08T02:15:04.522Z,1005.20
2019-02-08T02:16:04.543Z,1005.22
2019-02-08T02:17:04.566Z,1005.23
2019-02-08T02:18:04.595Z,1005.22
2019-02-08T02:19:04.615Z,1005.27
2019-02-08T02:20:04.636Z,1005.23
2019-02-08T02:21:04.660Z,1005.25
2019-02-08T02:22:04.686Z,1005.24
2019-02-08T02:23:04.723Z,1005.28
2019-02-08T02:24:04.737Z,1005.25
2019-02-08T02:25:04.758Z,1005.23
2019-02-08T02:26:04.784Z,1005.25
2019-02-08T02:27:04.801Z,1005.29
2019-02-08T02:28:04.830Z,1005.30
2019-02-08T02:29:04.848Z,1005.30
2019-02-08T02:30:04.873Z,1005.30
2019-02-08T02:31:04.898Z,1005.29
2019-02-08T02:32:04.923Z,1005.39
2019-02-08T02:33:04.943Z,1005.31
2019-02-08T02:34:04.967Z,1005.28
2019-02-08T02:35:04.989Z,1005.33
2019-02-08T02:36:05.017Z,1005.30
2019-02-08T02:37:05.039Z,1005.30
2019-02-08T02:38:05.069Z,1005.34
2019-02-08T02:39:05.089Z,1005.28
2019-02-08T02:40:05.111Z,1005.27
2019-02-08T02:41:05.135Z,1005.35
2019-02-08T02:42:05.157Z,1005.34
2019-02-08T02:43:05.176Z,1005.40
2019-02-08T02:44:05.235Z,1005.32
2019-02-08T02:45:05.229Z,1005.35
2019-02-08T02:46:05.254Z,1005.32
2019-02-08T02:47:05.274Z,1005.37
2019-02-08T02:48:05.308Z,1005.39
2019-02-08T02:49:05.326Z,1005.38
2019-02-08T02:50:05.344Z,1005.33
2019-02-08T02:51:05.365Z,1005.35
2019-02-08T02:52:05.391Z,1005.37
2019-02-08T02:53:05.423Z,1005.37
2019-02-08T02:54:05.436Z,1005.40
2019-02-08T02:55:05.463Z,1005.40
2019-02-08T02:56:05.483Z,1005.39
2019-02-08T02:57:05.509Z,1005.42
2019-02-08T02:58:05.533Z,1005.35
2019-02-08T02:59:05.556Z,1005.34
2019-02-08T03:00:05.578Z,1005.33
2019-02-08T03:01:05.604Z,1005.38
2019-02-08T03:02:05.625Z,1005.40
2019-02-08T03:03:05.651Z,1005.29
2019-02-08T03:04:05.674Z,1005.30
2019-02-08T03:05:05.697Z,1005.32
2019-02-08T03:06:05.725Z,1005.32
2019-02-08T03:07:05.742Z,1005.34
2019-02-08T03:08:05.769Z,1005.31
2019-02-08T03:09:05.796Z,1005.30
2019-02-08T03:10:05.817Z,1005.32
2019-02-08T03:11:05.849Z,1005.36
2019-02-08T03:12:05.864Z,1005.37
2019-02-08T03:13:05.885Z,1005.31
2019-02-08T03:14:05.911Z,1005.31
2019-02-08T03:15:05.936Z,1005.39
2019-02-08T03:16:05.962Z,1005.40
2019-02-08T03:17:05.987Z,1005.39
2019-02-08T03:18:06.005Z,1005.36
2019-02-08T03:19:06.032Z,1005.42
2019-02-08T03:20:06.057Z,1005.35
2019-02-08T03:21:06.075Z,1005.29
2019-02-08T03:22:06.098Z,1005.34
2019-02-08T03:23:06.131Z,1005.34
2019-02-08T03:24:12.944Z,1005.32
2019-02-08T03:25:06.174Z,1005.28
2019-02-08T03:26:06.199Z,1005.31
2019-02-08T03:27:06.229Z,1005.26
2019-02-08T03:28:06.239Z,1005.27
2019-02-08T03:29:06.264Z,1005.24
2019-02-08T03:30:06.293Z,1005.26
2019-02-08T03:31:06.313Z,1005.29
2019-02-08T03:32:06.344Z,1005.25
2019-02-08T03:33:06.362Z,1005.23
2019-02-08T03:34:06.388Z,1005.24
2019-02-08T03:35:06.406Z,1005.18
2019-02-08T03:36:06.431Z,1005.21
2019-02-08T03:37:06.455Z,1005.27
2019-02-08T03:38:06.482Z,1005.14
2019-02-08T03:39:06.503Z,1005.23
2019-02-08T03:40:06.526Z,1005.20
2019-02-08T03:41:06.546Z,1005.17
2019-02-08T03:42:06.573Z,1005.17
2019-02-08T03:43:08.119Z,1005.18
2019-02-08T03:44:06.623Z,1005.19
2019-02-08T03:45:06.645Z,1005.17
2019-02-08T03:46:06.672Z,1005.11
2019-02-08T03:47:06.688Z,1005.15
2019-02-08T03:48:06.714Z,1005.15
2019-02-08T03:49:06.747Z,1005.20
2019-02-08T03:50:06.763Z,1005.26
2019-02-08T03:51:06.789Z,1005.19
2019-02-08T03:52:06.810Z,1005.15
2019-02-08T03:53:06.833Z,1005.20
2019-02-08T03:54:06.855Z,1005.20
2019-02-08T03:55:06.912Z,1005.15
2019-02-08T03:56:06.902Z,1005.16
2019-02-08T03:57:06.933Z,1005.10
2019-02-08T03:58:06.949Z,1005.11
2019-02-08T03:59:06.982Z,1005.04
2019-02-08T04:00:07.000Z,1005.03
2019-02-08T04:01:07.022Z,1005.13
2019-02-08T04:02:07.058Z,1005.08
2019-02-08T04:03:07.069Z,1005.05
2019-02-08T04:04:07.091Z,1005.05
2019-02-08T04:05:07.115Z,1004.99
2019-02-08T04:06:07.138Z,1005.01
2019-02-08T04:07:07.162Z,1005.06
2019-02-08T04:08:07.196Z,1005.12
2019-02-08T04:09:07.212Z,1005.02
2019-02-08T04:10:07.232Z,1004.97
2019-02-08T04:11:07.254Z,1005.05
2019-02-08T04:12:07.280Z,1004.99
2019-02-08T04:13:07.304Z,1005.08
2019-02-08T04:14:07.329Z,1004.93
2019-02-08T04:15:07.364Z,1005.00
2019-02-08T04:16:07.373Z,1005.01
2019-02-08T04:17:07.397Z,1004.96
2019-02-08T04:18:07.421Z,1005.01
2019-02-08T04:19:07.444Z,1005.04
2019-02-08T04:20:07.466Z,1005.04
2019-02-08T04:21:07.490Z,1005.04
2019-02-08T04:22:07.517Z,1005.06
2019-02-08T04:23:07.547Z,1005.02
2019-02-08T04:24:07.563Z,1005.01
2019-02-08T04:25:07.586Z,1005.05
2019-02-08T04:26:07.609Z,1005.02
2019-02-08T04:27:07.634Z,1005.04
2019-02-08T04:28:07.656Z,1005.09
2019-02-08T04:29:07.684Z,1005.14
2019-02-08T04:30:07.740Z,1005.14
2019-02-08T04:31:07.726Z,1005.14
2019-02-08T04:32:07.756Z,1005.10
2019-02-08T04:33:07.774Z,1005.06
2019-02-08T04:34:07.800Z,1005.06
2019-02-08T04:35:07.837Z,1005.05
2019-02-08T04:36:07.847Z,1005.10
2019-02-08T04:37:07.871Z,1005.11
2019-02-08T04:38:07.894Z,1005.09
2019-02-08T04:39:07.914Z,1005.08
2019-02-08T04:40:07.939Z,1005.07
2019-02-08T04:41:07.966Z,1005.05
2019-02-08T04:42:07.988Z,1005.06
2019-02-08T04:43:08.018Z,1004.99
2019-02-08T04:44:08.035Z,1005.01
2019-02-08T04:45:08.058Z,1005.05
2019-02-08T04:46:08.089Z,1005.00
2019-02-08T04:47:08.103Z,1005.05
2019-02-08T04:48:08.131Z,1004.94
2019-02-08T04:49:08.152Z,1004.94
2019-02-08T04:50:08.178Z,1004.89
2019-02-08T04:51:08.199Z,1004.89
2019-02-08T04:52:08.227Z,1004.94
2019-02-08T04:53:08.252Z,1004.87
2019-02-08T04:54:08.270Z,1004.88
2019-02-08T04:55:08.291Z,1004.95
2019-02-08T04:56:08.322Z,1004.96
2019-02-08T04:57:08.341Z,1005.06
2019-02-08T04:58:08.366Z,1004.98
2019-02-08T04:59:08.388Z,1005.02
2019-02-08T05:00:08.419Z,1004.96
2019-02-08T05:01:08.434Z,1004.90
2019-02-08T05:02:08.459Z,1004.96
2019-02-08T05:03:08.489Z,1004.86
2019-02-08T05:04:08.506Z,1004.85
2019-02-08T05:05:08.529Z,1004.96
2019-02-08T05:06:08.552Z,1004.96
2019-02-08T05:07:08.574Z,1004.94
2019-02-08T05:08:08.603Z,1004.92
2019-02-08T05:09:08.626Z,1004.90
2019-02-08T05:10:08.648Z,1004.92
2019-02-08T05:11:08.672Z,1004.88
2019-02-08T05:12:08.692Z,1004.86
2019-02-08T05:13:08.721Z,1004.83
2019-02-08T05:14:08.739Z,1004.82
2019-02-08T05:15:08.762Z,1004.82
2019-02-08T05:16:08.786Z,1004.86
2019-02-08T05:17:08.815Z,1004.82
2019-02-08T05:18:08.836Z,1004.81
2019-02-08T05:19:08.861Z,1004.78
2019-02-08T05:20:08.895Z,1004.78
2019-02-08T05:21:08.907Z,1004.73
2019-02-08T05:22:08.930Z,1004.73
2019-02-08T05:23:08.948Z,1004.72
2019-02-08T05:24:08.981Z,1004.69
2019-02-08T05:25:08.999Z,1004.71
2019-02-08T05:26:09.022Z,1004.70
2019-02-08T05:27:09.045Z,1004.66
2019-02-08T05:28:09.074Z,1004.60
2019-02-08T05:29:09.098Z,1004.64
2019-02-08T05:30:09.115Z,1004.62
2019-02-08T05:31:09.140Z,1004.63
2019-02-08T05:32:09.162Z,1004.59
2019-02-08T05:33:09.690Z,1004.66
2019-02-08T05:34:09.212Z,1004.68
2019-02-08T05:35:09.232Z,1004.67
2019-02-08T05:36:09.263Z,1004.70
2019-02-08T05:37:09.288Z,1004.70
2019-02-08T05:38:09.306Z,1004.74
2019-02-08T05:39:09.327Z,1004.68
2019-02-08T05:40:09.351Z,1004.79
2019-02-08T05:41:09.378Z,1004.76
2019-02-08T05:42:09.653Z,1004.79
2019-02-08T05:43:09.422Z,1004.79
2019-02-08T05:44:09.444Z,1004.87
2019-02-08T05:45:09.480Z,1004.79
2019-02-08T05:46:09.501Z,1004.82
2019-02-08T05:47:09.517Z,1004.79
2019-02-08T05:48:09.543Z,1004.80
2019-02-08T05:49:09.586Z,1004.77
2019-02-08T05:50:09.585Z,1004.82
2019-02-08T05:51:09.613Z,1004.81
2019-02-08T05:52:09.636Z,1004.76
2019-02-08T05:53:09.669Z,1004.74
2019-02-08T05:54:09.682Z,1004.70
2019-02-08T05:55:09.712Z,1004.76
2019-02-08T05:56:09.726Z,1004.74
2019-02-08T05:57:09.750Z,1004.70
2019-02-08T05:58:09.774Z,1004.64
2019-02-08T05:59:09.798Z,1004.71
2019-02-08T06:00:09.823Z,1004.69
2019-02-08T06:01:09.847Z,1004.67
2019-02-08T06:02:09.874Z,1004.67
2019-02-08T06:03:09.893Z,1004.66
2019-02-08T06:04:09.918Z,1004.65
2019-02-08T06:05:09.948Z,1004.60
2019-02-08T06:06:09.965Z,1004.58
2019-02-08T06:07:09.989Z,1004.55
2019-02-08T06:08:10.017Z,1004.60
2019-02-08T06:09:10.043Z,1004.59
2019-02-08T06:10:10.059Z,1004.57
2019-02-08T06:11:10.083Z,1004.54
2019-02-08T06:12:10.102Z,1004.57
2019-02-08T06:13:10.631Z,1004.57
2019-02-08T06:14:10.651Z,1004.49
2019-02-08T06:15:10.624Z,1004.53
2019-02-08T06:16:10.205Z,1004.48
2019-02-08T06:17:10.224Z,1004.51
2019-02-08T06:18:10.645Z,1004.50
2019-02-08T06:19:10.267Z,1004.48
2019-02-08T06:20:10.643Z,1004.48
2019-02-08T06:21:10.316Z,1004.48
2019-02-08T06:22:10.692Z,1004.48
2019-02-08T06:23:10.672Z,1004.44
2019-02-08T06:24:10.638Z,1004.45
2019-02-08T06:25:10.671Z,1004.42
2019-02-08T06:26:10.758Z,1004.50
2019-02-08T06:27:10.658Z,1004.45
2019-02-08T06:28:10.635Z,1004.49
2019-02-08T06:29:10.759Z,1004.50
2019-02-08T06:30:10.535Z,1004.54
2019-02-08T06:31:10.548Z,1004.51
2019-02-08T06:32:10.724Z,1004.48
2019-02-08T06:33:10.600Z,1004.55
2019-02-08T06:34:10.619Z,1004.48
2019-02-08T06:35:10.642Z,1004.53
2019-02-08T06:36:10.668Z,1004.53
2019-02-08T06:37:10.693Z,1004.55
2019-02-08T06:38:10.715Z,1004.54
2019-02-08T06:39:10.737Z,1004.57
2019-02-08T06:40:10.759Z,1004.58
2019-02-08T06:41:10.785Z,1004.55
2019-02-08T06:42:10.809Z,1004.58
2019-02-08T06:43:10.832Z,1004.57
2019-02-08T06:44:10.853Z,1004.56
2019-02-08T06:45:10.877Z,1004.56
2019-02-08T06:46:10.903Z,1004.59
2019-02-08T06:47:10.929Z,1004.61
2019-02-08T06:48:10.946Z,1004.62
2019-02-08T06:49:10.972Z,1004.64
2019-02-08T06:50:10.997Z,1004.65
2019-02-08T06:51:11.017Z,1004.69
2019-02-08T06:52:11.045Z,1004.61
2019-02-08T06:53:11.066Z,1004.64
2019-02-08T06:54:11.090Z,1004.60
2019-02-08T06:55:11.269Z,1004.59
2019-02-08T06:56:11.140Z,1004.61
2019-02-08T06:57:11.158Z,1004.58
2019-02-08T06:58:11.181Z,1004.62
2019-02-08T06:59:11.206Z,1004.61
2019-02-08T07:00:11.230Z,1004.63
2019-02-08T07:01:11.254Z,1004.60
2019-02-08T07:02:11.279Z,1004.60
2019-02-08T07:03:11.298Z,1004.58
2019-02-08T07:04:11.328Z,1004.59
2019-02-08T07:05:11.346Z,1004.57
2019-02-08T07:06:11.407Z,1004.67
2019-02-08T07:07:11.396Z,1004.61
2019-02-08T07:08:11.419Z,1004.64
2019-02-08T07:09:11.443Z,1004.60
2019-02-08T07:10:11.470Z,1004.69
2019-02-08T07:11:11.487Z,1004.67
2019-02-08T07:12:11.510Z,1004.64
2019-02-08T07:13:11.542Z,1004.65
2019-02-08T07:14:11.560Z,1004.66
2019-02-08T07:15:11.581Z,1004.70
2019-02-08T07:16:11.608Z,1004.71
2019-02-08T07:17:11.627Z,1004.67
2019-02-08T07:18:11.653Z,1004.69
2019-02-08T07:19:11.675Z,1004.78
2019-02-08T07:20:11.700Z,1004.75
2019-02-08T07:21:11.730Z,1004.73
2019-02-08T07:22:11.747Z,1004.76
2019-02-08T07:23:11.766Z,1004.71
2019-02-08T07:24:11.793Z,1004.73
2019-02-08T07:25:18.396Z,1004.77
2019-02-08T07:26:11.839Z,1004.79
2019-02-08T07:27:11.869Z,1004.73
2019-02-08T07:28:11.885Z,1004.70
2019-02-08T07:29:11.910Z,1004.75
2019-02-08T07:30:11.936Z,1004.72
2019-02-08T07:31:11.957Z,1004.69
2019-02-08T07:32:11.987Z,1004.70
2019-02-08T07:33:12.003Z,1004.67
2019-02-08T07:34:12.026Z,1004.72
2019-02-08T07:35:12.049Z,1004.64
2019-02-08T07:36:12.082Z,1004.71
2019-02-08T07:37:12.098Z,1004.68
2019-02-08T07:38:12.123Z,1004.70
2019-02-08T07:39:12.149Z,1004.71
2019-02-08T07:40:12.169Z,1004.70
2019-02-08T07:41:12.195Z,1004.69
2019-02-08T07:42:12.212Z,1004.76
2019-02-08T07:43:12.244Z,1004.66
2019-02-08T07:44:12.262Z,1004.75
2019-02-08T07:45:12.289Z,1004.68
2019-02-08T07:46:12.307Z,1004.69
2019-02-08T07:47:12.331Z,1004.76
2019-02-08T07:48:12.355Z,1004.70
2019-02-08T07:49:12.380Z,1004.75
2019-02-08T07:50:12.401Z,1004.74
2019-02-08T07:51:12.424Z,1004.74
2019-02-08T07:52:12.447Z,1004.86
2019-02-08T07:53:12.471Z,1004.69
2019-02-08T07:54:12.497Z,1004.67
2019-02-08T07:55:12.518Z,1004.70
2019-02-08T07:56:12.543Z,1004.75
2019-02-08T07:57:12.567Z,1004.68
2019-02-08T07:58:12.591Z,1004.71
2019-02-08T07:59:12.611Z,1004.70
2019-02-08T08:00:12.644Z,1004.71
2019-02-08T08:01:12.659Z,1004.73
2019-02-08T08:02:14.317Z,1004.78
2019-02-08T08:03:12.705Z,1004.78
2019-02-08T08:04:12.737Z,1004.66
2019-02-08T08:05:12.755Z,1004.70
2019-02-08T08:06:12.781Z,1004.65
2019-02-08T08:07:12.802Z,1004.61
2019-02-08T08:08:12.823Z,1004.65
2019-02-08T08:09:12.847Z,1004.61
2019-02-08T08:10:12.871Z,1004.57
2019-02-08T08:11:12.896Z,1004.60
2019-02-08T08:12:12.917Z,1004.60
2019-02-08T08:13:12.950Z,1004.61
2019-02-08T08:14:12.969Z,1004.61
2019-02-08T08:15:12.996Z,1004.62
2019-02-08T08:16:13.011Z,1004.57
2019-02-08T08:17:13.035Z,1004.57
2019-02-08T08:18:13.059Z,1004.57
2019-02-08T08:19:13.088Z,1004.61
2019-02-08T08:20:13.110Z,1004.54
2019-02-08T08:21:13.130Z,1004.59
2019-02-08T08:22:13.156Z,1004.61
2019-02-08T08:23:13.177Z,1004.59
2019-02-08T08:24:13.201Z,1004.52
2019-02-08T08:25:13.227Z,1004.56
2019-02-08T08:26:13.249Z,1004.58
2019-02-08T08:27:13.270Z,1004.56
2019-02-08T08:28:13.294Z,1004.57
2019-02-08T08:29:13.321Z,1004.54
2019-02-08T08:30:13.344Z,1004.54
2019-02-08T08:31:13.363Z,1004.58
2019-02-08T08:32:13.392Z,1004.59
2019-02-08T08:33:13.419Z,1004.56
2019-02-08T08:34:13.442Z,1004.59
2019-02-08T08:35:13.459Z,1004.58
2019-02-08T08:36:13.490Z,1004.51
2019-02-08T08:37:13.507Z,1004.46
2019-02-08T08:38:13.539Z,1004.51
2019-02-08T08:39:13.554Z,1004.62
2019-02-08T08:40:13.584Z,1004.51
2019-02-08T08:41:13.610Z,1004.51
2019-02-08T08:42:13.628Z,1004.55
2019-02-08T08:43:15.146Z,1004.50
2019-02-08T08:44:13.675Z,1004.53
2019-02-08T08:45:13.700Z,1004.57
2019-02-08T08:46:13.721Z,1004.51
2019-02-08T08:47:13.750Z,1004.52
2019-02-08T08:48:13.767Z,1004.48
2019-02-08T08:49:13.800Z,1004.53
2019-02-08T08:50:13.819Z,1004.59
2019-02-08T08:51:13.842Z,1004.57
2019-02-08T08:52:13.869Z,1004.56
2019-02-08T08:53:13.888Z,1004.54
2019-02-08T08:54:13.918Z,1004.57
2019-02-08T08:55:13.937Z,1004.54
2019-02-08T08:56:13.959Z,1004.57
2019-02-08T08:57:13.991Z,1004.54
2019-02-08T08:58:14.007Z,1004.58
2019-02-08T08:59:14.030Z,1004.45
2019-02-08T09:00:14.055Z,1004.47
2019-02-08T09:01:14.111Z,1004.45
2019-02-08T09:02:14.107Z,1004.47
2019-02-08T09:03:14.134Z,1004.44
2019-02-08T09:04:14.158Z,1004.44
2019-02-08T09:05:14.175Z,1004.42
2019-02-08T09:06:14.202Z,1004.36
2019-02-08T09:07:16.223Z,1004.44
2019-02-08T09:08:14.247Z,1004.43
2019-02-08T09:09:14.276Z,1004.35
2019-02-08T09:10:14.298Z,1004.32
2019-02-08T09:11:14.327Z,1004.34
2019-02-08T09:12:14.343Z,1004.34
2019-02-08T09:13:15.078Z,1004.37
2019-02-08T09:14:14.394Z,1004.28
2019-02-08T09:15:14.415Z,1004.37
2019-02-08T09:16:14.440Z,1004.28
2019-02-08T09:17:14.466Z,1004.31
2019-02-08T09:18:14.992Z,1004.31
2019-02-08T09:19:14.514Z,1004.32
2019-02-08T09:20:14.538Z,1004.25
2019-02-08T09:21:14.566Z,1004.32
2019-02-08T09:22:14.584Z,1004.30
2019-02-08T09:23:14.611Z,1004.28
2019-02-08T09:24:14.636Z,1004.32
2019-02-08T09:25:14.665Z,1004.25
2019-02-08T09:26:14.681Z,1004.26
2019-02-08T09:27:14.707Z,1004.19
2019-02-08T09:28:14.729Z,1004.25
2019-02-08T09:29:14.754Z,1004.18
2019-02-08T09:30:14.784Z,1004.23
2019-02-08T09:31:14.806Z,1004.23
2019-02-08T09:32:14.830Z,1004.24
2019-02-08T09:33:14.891Z,1004.36
2019-02-08T09:34:14.875Z,1004.14
2019-02-08T09:35:14.901Z,1004.21
2019-02-08T09:36:14.931Z,1004.23
2019-02-08T09:37:14.950Z,1004.21
2019-02-08T09:38:14.977Z,1004.32
2019-02-08T09:39:15.002Z,1004.24
2019-02-08T09:40:15.022Z,1004.17
2019-02-08T09:41:15.052Z,1004.17
2019-02-08T09:42:15.071Z,1004.19
2019-02-08T09:43:15.092Z,1004.14
2019-02-08T09:44:15.119Z,1004.14
2019-02-08T09:45:15.141Z,1004.15
2019-02-08T09:46:15.192Z,1004.25
2019-02-08T09:47:15.191Z,1004.17
2019-02-08T09:48:15.215Z,1004.12
2019-02-08T09:49:15.238Z,1004.21
2019-02-08T09:50:15.263Z,1004.16
2019-02-08T09:51:15.288Z,1004.21
2019-02-08T09:52:15.312Z,1004.24
2019-02-08T09:53:15.336Z,1004.10
2019-02-08T09:54:15.359Z,1004.13
2019-02-08T09:55:15.385Z,1004.24
2019-02-08T09:56:15.410Z,1004.21
2019-02-08T09:57:15.431Z,1004.17
2019-02-08T09:58:15.463Z,1004.20
2019-02-08T09:59:15.486Z,1004.24
2019-02-08T10:00:15.505Z,1004.23
2019-02-08T10:01:15.531Z,1004.27
2019-02-08T10:02:15.562Z,1004.27
2019-02-08T10:03:15.583Z,1004.22
2019-02-08T10:04:15.602Z,1004.30
2019-02-08T10:05:15.634Z,1004.27
2019-02-08T10:06:15.652Z,1004.21
2019-02-08T10:07:15.726Z,1004.18
2019-02-08T10:08:15.698Z,1004.14
2019-02-08T10:09:15.725Z,1004.15
2019-02-08T10:10:15.750Z,1004.16
2019-02-08T10:11:15.771Z,1004.16
2019-02-08T10:12:15.798Z,1004.20
2019-02-08T10:13:15.823Z,1004.09
2019-02-08T10:14:15.847Z,1004.08
2019-02-08T10:15:15.871Z,1004.17
2019-02-08T10:16:15.893Z,1004.14
2019-02-08T10:17:15.920Z,1004.12
2019-02-08T10:18:15.944Z,1003.99
2019-02-08T10:19:15.970Z,1003.95
2019-02-08T10:20:15.989Z,1004.04
2019-02-08T10:21:16.023Z,1003.99
2019-02-08T10:22:16.039Z,1004.02
2019-02-08T10:23:16.071Z,1003.97
2019-02-08T10:24:16.088Z,1004.04
2019-02-08T10:25:16.111Z,1003.92
2019-02-08T10:26:16.136Z,1004.00
2019-02-08T10:27:16.162Z,1003.92
2019-02-08T10:28:16.188Z,1003.90
2019-02-08T10:29:16.209Z,1003.89
2019-02-08T10:30:16.240Z,1003.96
2019-02-08T10:31:16.257Z,1003.91
2019-02-08T10:32:16.287Z,1003.95
2019-02-08T10:33:16.313Z,1003.91
2019-02-08T10:34:16.330Z,1003.94
2019-02-08T10:35:16.355Z,1003.93
2019-02-08T10:36:16.381Z,1003.98
2019-02-08T10:37:16.407Z,1004.05
2019-02-08T10:38:16.429Z,1004.06
2019-02-08T10:39:16.454Z,1004.00
2019-02-08T10:40:16.522Z,1003.98
2019-02-08T10:41:16.503Z,1003.97
2019-02-08T10:42:16.525Z,1004.00
2019-02-08T10:43:16.554Z,1004.03
2019-02-08T10:44:16.573Z,1003.97
2019-02-08T10:45:16.600Z,1004.02
2019-02-08T10:46:16.629Z,1003.95
2019-02-08T10:47:17.986Z,1003.97
2019-02-08T10:48:16.673Z,1003.92
2019-02-08T10:49:16.695Z,1003.88
2019-02-08T10:50:16.722Z,1003.94
2019-02-08T10:51:16.746Z,1003.91
2019-02-08T10:52:16.768Z,1003.89
2019-02-08T10:53:16.793Z,1003.89
2019-02-08T10:54:16.820Z,1003.86
2019-02-08T10:55:16.843Z,1003.86
2019-02-08T10:56:16.866Z,1003.89
2019-02-08T10:57:16.891Z,1003.96
2019-02-08T10:58:16.915Z,1003.83
2019-02-08T10:59:16.941Z,1003.84
2019-02-08T11:00:16.963Z,1003.78
2019-02-08T11:01:16.990Z,1003.80
2019-02-08T11:02:17.015Z,1003.73
2019-02-08T11:03:17.043Z,1003.66
2019-02-08T11:04:17.064Z,1003.63
2019-02-08T11:05:17.089Z,1003.68
2019-02-08T11:06:17.111Z,1003.61
2019-02-08T11:07:17.144Z,1003.62
2019-02-08T11:08:17.161Z,1003.57
2019-02-08T11:09:17.184Z,1003.59
2019-02-08T11:10:17.215Z,1003.58
2019-02-08T11:11:17.232Z,1003.60
2019-02-08T11:12:17.258Z,1003.63
2019-02-08T11:13:17.284Z,1003.44
2019-02-08T11:14:17.309Z,1003.63
2019-02-08T11:15:17.336Z,1003.55
2019-02-08T11:16:17.357Z,1003.49
2019-02-08T11:17:17.381Z,1003.50
2019-02-08T11:18:17.406Z,1003.38
2019-02-08T11:19:17.431Z,1003.37
2019-02-08T11:20:17.455Z,1003.46
2019-02-08T11:21:17.480Z,1003.41
2019-02-08T11:22:17.504Z,1003.34
2019-02-08T11:23:17.528Z,1003.52
2019-02-08T11:24:17.559Z,1003.42
2019-02-08T11:25:17.578Z,1003.40
2019-02-08T11:26:22.537Z,1003.36
2019-02-08T11:27:17.626Z,1003.38
2019-02-08T11:28:17.651Z,1003.37
2019-02-08T11:29:17.674Z,1003.28
2019-02-08T11:30:17.701Z,1003.33
2019-02-08T11:31:17.725Z,1003.36
2019-02-08T11:32:17.750Z,1003.42
2019-02-08T11:33:17.775Z,1003.28
2019-02-08T11:34:17.797Z,1003.26
2019-02-08T11:35:17.833Z,1003.15
2019-02-08T11:36:17.848Z,1003.17
2019-02-08T11:37:17.872Z,1003.13
2019-02-08T11:38:17.898Z,1003.13
2019-02-08T11:39:17.921Z,1003.13
2019-02-08T11:40:17.947Z,1003.08
2019-02-08T11:41:17.978Z,1003.06
2019-02-08T11:42:17.995Z,1003.06
2019-02-08T11:43:18.018Z,1003.15
2019-02-08T11:44:18.047Z,1003.08
2019-02-08T11:45:18.071Z,1003.10
2019-02-08T11:46:18.094Z,1003.06
2019-02-08T11:47:18.118Z,1003.12
2019-02-08T11:48:18.149Z,1003.09
2019-02-08T11:49:18.174Z,1003.09
2019-02-08T11:50:18.195Z,1003.07
2019-02-08T11:51:18.216Z,1003.07
2019-02-08T11:52:18.244Z,1003.04
2019-02-08T11:53:18.274Z,1003.05
2019-02-08T11:54:18.301Z,1003.01
2019-02-08T11:55:18.318Z,1003.02
2019-02-08T11:56:18.342Z,1002.91
2019-02-08T11:57:18.365Z,1002.88
2019-02-08T11:58:18.390Z,1002.95
2019-02-08T11:59:18.417Z,1002.92
2019-02-08T12:00:18.442Z,1002.93
2019-02-08T12:01:18.467Z,1002.90
2019-02-08T12:02:18.490Z,1002.89
2019-02-08T12:03:18.513Z,1002.80
2019-02-08T12:04:18.541Z,1002.84
2019-02-08T12:05:18.566Z,1002.85